LFLN/SYT METAR and TAF weather

Enter ICAO airport designator
Station Type Date Time Source
LFLN METAR 2021/07/24 20:30 UTC NOAA

LFLN 242030Z AUTO 31003G14KT 9999 FEW034/// BKN056/// BKN094/// ///CB 18/16 Q1012 BECMG SCT050


Station Type Date Time Source
LFLN Decoded METAR 2021/07/24 20:30 UTC NOAA

Saint-Yan, France (LFLN) 46-25N 004-01E 244M
Jul 24, 2021 - 04:30 PM EDT / 2021.07.24 2030 UTC
Wind: from the NW (310 degrees) at 3 MPH (3 KT) gusting to 16 MPH (14 KT):0
Visibility: greater than 7 mile(s):0
Sky conditions: mostly cloudy
Weather: Cumulonimbus clouds observed
Temperature: 64 F (18 C)
Dew Point: 60 F (16 C)
Relative Humidity: 88%
Pressure (altimeter): 29.88 in. Hg (1012 hPa)
ob: LFLN 242030Z AUTO 31003G14KT 9999 FEW034/// BKN056/// BKN094/// ///CB 18/16 Q1012 BECMG SCT050
cycle: 20

Station Type Date Time Source
LFLN TAF UTC NOAA

Error!

Example: see airport list